This is the latest recevied weather packets stored in our database for station/object KD8FRE. If no packets are shown the sender has not sent any weather packets the latest 10 day(s).
| Time | Temp. | Humidity | Pressure | Rain* | Wind** | Luminosity | Snow |
|---|---|---|---|---|---|---|---|
| 1778085517 | 8.89° C | 53% | 1013.4 hPa | 0 mm | - | 380 W/m² | - |
| 1778085212 | 8.33° C | 55% | 1013.3 hPa | 0 mm | - | 178 W/m² | - |
| 1778084907 | 8.89° C | 52% | 1013.5 hPa | 0 mm | - | 149 W/m² | - |
| 1778084606 | 8.89° C | 52% | 1013.3 hPa | 0 mm | - | 334 W/m² | - |
| 1778084303 | 8.89° C | 54% | 1013.5 hPa | 0 mm | - | 137 W/m² | - |
| 1778084000 | 9.44° C | 52% | 1013.3 hPa | 0 mm | - | 154 W/m² | - |
| 1778083698 | 9.44° C | 52% | 1013.4 hPa | 0 mm | - | 146 W/m² | - |
| 1778083394 | 9.44° C | 52% | 1013.5 hPa | 0 mm | - | 410 W/m² | - |
| 1778083093 | 9.44° C | 53% | 1013.3 hPa | 0 mm | - | 316 W/m² | - |
| 1778082789 | 8.89° C | 52% | 1013.4 hPa | 0 mm | - | 443 W/m² | - |
| 1778081661 | 9.44° C | 53% | 1013.2 hPa | 0 mm | - | 396 W/m² | - |
| 1778081359 | 8.89° C | 54% | 1013.1 hPa | 0 mm | - | 373 W/m² | - |
| 1778081056 | 8.89° C | 55% | 1012.9 hPa | 0 mm | - | 311 W/m² | - |
| 1778080755 | 8.33° C | 56% | 1013.2 hPa | 0 mm | - | 369 W/m² | - |
| 1778080451 | 8.33° C | 56% | 1012.9 hPa | 0 mm | - | 227 W/m² | - |
| 1778080149 | 8.33° C | 54% | 1013 hPa | 0 mm | - | 135 W/m² | - |
| 1778079844 | 8.33° C | 54% | 1013 hPa | 0 mm | - | 378 W/m² | - |
| 1778079541 | 8.89° C | 54% | 1013 hPa | 0 mm | - | 177 W/m² | - |
| 1778079237 | 8.89° C | 57% | 1013 hPa | 0 mm | - | 441 W/m² | - |
| 1778078936 | 8.33° C | 61% | 1012.8 hPa | 0 mm | - | 286 W/m² | - |
| 1778078631 | 7.78° C | 63% | 1013 hPa | 0 mm | - | 152 W/m² | - |
| 1778078330 | 7.78° C | 64% | 1012.8 hPa | 0 mm | - | 180 W/m² | - |
| 1778078027 | 8.33° C | 60% | 1012.6 hPa | 0 mm | - | 222 W/m² | - |
| 1778077725 | 8.33° C | 63% | 1012.6 hPa | 0 mm | - | 153 W/m² | - |
| 1778077423 | 8.33° C | 64% | 1012.7 hPa | 0 mm | - | 380 W/m² | - |
* Rain latest hour (hover to see other rain measurements)
** Current wind speed in m/s (hover to see current wind gust speed)